Troy, Ohio
Current Conditions -  °F | °C
As of 7:56 PM on Thursday 27 Nov 2014 (Local Time) from KDAY Reporting Station
Overcast Overcast  
Wind Chill: 18°   Ceiling: 2000
Heat Index: 29°   Visibility: 7mi
Dew Point: 21°   Wind: 15mph
Humidity: 72%   Direction: 280°W
Pressure: 30.34"   Gusts: NA
Location:  40.04°N, 84.2°W
Report Text: KDAY 280056Z 28013KT 7SM OVC020 M02/M06 A3034 RMK AO2 SNB25E55 SLP286 P0000 T10171061
Loading
Personal Weather Stations






























Interactive Weather Map New forecast layout! Learn more

10-Day Weather Forecast

Advertisements
Track Severe Weather on mobile